Date,TemperatureHighF,TemperatureAvgF,TemperatureLowF,DewpointHighF,DewpointAvgF,DewpointLowF,HumidityHigh,HumidityAvg,HumidityLow,PressureMaxIn,PressureMinIn,WindSpeedMaxMPH,WindSpeedAvgMPH,GustSpeedMaxMPH,PrecipitationSumIn
2013-1-1,40.6,37.4,28.6,32.7,27.8,14.5,82,68,55,30.08,29.89,18,4,18,0.00
2013-1-2,34.2,28.6,23.4,18.9,16.0,12.9,68,59,47,30.24,30.06,17,3,19,0.00
2013-1-3,33.4,29.1,25.3,21.6,18.6,16.9,74,65,53,30.26,30.13,13,2,15,0.00
2013-1-4,37.9,34.2,28.8,24.8,23.5,21.0,74,65,57,30.15,30.02,27,5,27,0.00
2013-1-5,44.1,35.9,30.7,25.7,23.6,20.8,77,61,46,30.35,30.09,17,3,18,0.00
2013-1-6,47.7,39.4,32.7,34.7,30.2,25.3,94,71,50,30.28,30.02,14,2,14,0.00
2013-1-7,46.8,38.3,27.1,32.7,28.0,23.4,87,68,45,30.45,30.12,16,1,16,0.00
2013-1-8,50.2,37.1,25.7,35.6,30.2,23.2,94,77,55,30.48,30.39,15,1,15,0.00
2013-1-9,50.2,40.7,29.7,41.2,34.8,27.7,94,80,65,30.45,30.18,13,2,13,0.00
2013-1-10,49.8,43.2,36.7,35.2,28.9,26.2,72,58,41,30.60,30.30,15,3,15,0.00
2013-1-11,46.8,41.4,34.9,45.5,36.1,27.0,98,82,66,30.59,30.13,8,1,8,0.58
2013-1-12,50.2,46.5,43.3,47.3,45.2,42.8,98,95,89,30.22,30.12,5,0,6,0.00
2013-1-13,49.8,46.9,44.4,49.5,46.4,44.2,99,98,94,30.20,30.05,5,0,5,0.02
2013-1-14,57.2,50.5,39.9,54.0,44.7,29.1,100,83,47,30.35,29.94,12,2,12,0.07
2013-1-15,39.9,38.1,35.2,37.2,31.8,28.4,93,78,67,30.40,30.25,11,1,11,0.16
2013-1-16,37.8,34.9,33.1,35.6,33.8,31.8,98,96,90,30.26,29.86,11,2,11,0.82
2013-1-17,44.1,40.1,36.9,36.0,31.6,26.8,92,72,59,30.15,29.97,15,3,15,0.00
2013-1-18,36.7,30.3,26.2,27.1,15.3,7.3,72,54,37,30.54,30.04,17,3,18,0.00
2013-1-19,52.5,40.3,26.6,31.3,26.2,14.2,78,58,40,30.47,29.98,18,3,19,0.00
2013-1-20,54.9,43.5,30.7,33.4,25.4,14.2,79,51,24,30.10,29.75,34,6,34,0.00
2013-1-21,32.4,29.3,24.1,19.8,14.3,11.3,69,53,44,30.15,29.90,15,2,15,0.00
2013-1-22,27.3,19.9,14.2,13.1,1.8,-4.4,57,45,34,30.28,29.91,31,9,31,0.00
2013-1-23,20.5,14.9,11.1,6.3,0.7,-5.3,78,53,42,30.32,30.23,24,5,24,0.00
2013-1-24,25.0,17.1,8.8,8.4,3.5,-1.7,89,58,32,30.49,30.19,24,4,27,0.00
2013-1-25,24.3,17.6,12.7,17.2,7.1,-1.1,92,65,44,30.50,30.13,17,2,17,0.00
2013-1-26,28.4,20.4,12.7,13.3,10.6,8.4,93,68,44,30.45,30.11,19,3,19,0.00
2013-1-27,35.4,25.4,15.3,16.2,13.0,9.0,77,60,40,30.59,30.45,16,2,16,0.00
2013-1-28,35.6,30.9,21.9,34.2,27.0,15.4,96,86,70,30.56,30.06,11,1,11,0.02
2013-1-29,55.2,42.9,35.1,45.7,40.2,33.8,96,91,68,30.19,30.06,8,1,8,0.00
2013-1-30,68.5,54.8,42.4,61.3,51.9,41.7,100,91,76,30.12,29.39,25,3,26,0.01
2013-1-31,63.0,45.6,29.7,60.8,33.0,13.3,96,63,42,29.86,29.09,45,12,45,0.87